createdAt,value
2024-02-08T00:00:00.499Z,28.60
2024-02-08T00:02:27.459Z,24.65
2024-02-08T00:04:54.313Z,23.05
2024-02-08T00:07:21.136Z,25.95
2024-02-08T00:09:47.918Z,24.38
2024-02-08T00:12:14.726Z,24.17
2024-02-08T00:14:41.505Z,25.83
2024-02-08T00:17:08.294Z,23.95
2024-02-08T00:19:35.157Z,25.48
2024-02-08T00:22:02.042Z,25.10
2024-02-08T00:24:28.821Z,24.20
2024-02-08T00:26:55.569Z,27.35
2024-02-08T00:29:22.365Z,25.40
2024-02-08T00:31:49.148Z,26.95
2024-02-08T00:34:16.063Z,27.30
2024-02-08T00:36:42.896Z,26.15
2024-02-08T00:39:10.393Z,25.52
2024-02-08T00:41:37.387Z,25.20
2024-02-08T00:44:04.279Z,25.63
2024-02-08T00:46:31.133Z,25.90
2024-02-08T00:48:57.974Z,25.83
2024-02-08T00:51:24.777Z,27.15
2024-02-08T00:53:51.517Z,24.67
2024-02-08T00:56:18.318Z,27.58
2024-02-08T00:58:45.248Z,26.27
2024-02-08T01:01:12.072Z,27.10
2024-02-08T01:03:38.944Z,28.52
2024-02-08T01:06:06.199Z,28.45
2024-02-08T01:08:33.039Z,24.27
2024-02-08T01:10:59.928Z,26.10
2024-02-08T01:13:26.891Z,25.08
2024-02-08T01:15:54.118Z,25.30
2024-02-08T01:18:23.996Z,25.45
2024-02-08T01:20:50.860Z,24.13
2024-02-08T01:23:18.524Z,26.77
2024-02-08T01:25:46.228Z,26.88
2024-02-08T01:28:13.010Z,25.80
2024-02-08T01:30:39.946Z,25.60
2024-02-08T01:33:07.623Z,24.63
2024-02-08T01:35:34.789Z,26.35
2024-02-08T01:38:01.695Z,25.05
2024-02-08T01:40:28.844Z,24.63
2024-02-08T01:42:56.406Z,25.27
2024-02-08T01:45:33.896Z,25.55
2024-02-08T01:48:08.339Z,23.55
2024-02-08T01:50:38.336Z,21.50
2024-02-08T01:53:07.511Z,22.15
2024-02-08T01:55:35.958Z,23.17
2024-02-08T01:58:07.957Z,20.48
2024-02-08T02:03:21.514Z,18.38
2024-02-08T02:05:48.581Z,17.88
2024-02-08T02:08:21.300Z,18.20
2024-02-08T02:11:10.857Z,19.45
2024-02-08T02:13:39.693Z,14.52
2024-02-08T02:16:07.147Z,20.35
2024-02-08T02:18:34.021Z,20.13
2024-02-08T02:21:00.869Z,18.23
2024-02-08T02:23:27.721Z,20.85
2024-02-08T02:25:55.274Z,20.05
2024-02-08T02:28:22.629Z,20.98
2024-02-08T02:30:49.790Z,21.02
2024-02-08T02:33:17.346Z,19.27
2024-02-08T02:35:44.561Z,20.77
2024-02-08T02:38:11.429Z,18.52
2024-02-08T02:40:38.438Z,18.52
2024-02-08T02:43:05.331Z,18.33
2024-02-08T02:45:32.151Z,16.35
2024-02-08T02:47:59.040Z,15.85
2024-02-08T02:50:26.121Z,17.40
2024-02-08T02:52:54.346Z,15.98
2024-02-08T02:55:21.532Z,12.93
2024-02-08T02:57:48.385Z,15.05
2024-02-08T03:00:15.830Z,11.38
2024-02-08T03:02:42.709Z,13.00
2024-02-08T03:05:09.625Z,15.07
2024-02-08T03:07:36.658Z,12.63
2024-02-08T03:10:03.503Z,10.95
2024-02-08T03:12:30.307Z,15.27
2024-02-08T03:15:00.523Z,15.05
2024-02-08T03:17:27.408Z,14.65
2024-02-08T03:19:54.373Z,13.70
2024-02-08T03:22:21.225Z,12.15
2024-02-08T03:24:48.051Z,11.35
2024-02-08T03:27:14.857Z,13.00
2024-02-08T03:29:41.914Z,12.27
2024-02-08T03:32:09.544Z,13.00
2024-02-08T03:34:36.927Z,10.73
2024-02-08T03:37:04.010Z,13.10
2024-02-08T03:39:30.768Z,12.05
2024-02-08T03:41:59.599Z,11.68
2024-02-08T03:44:27.341Z,11.75
2024-02-08T03:46:54.200Z,11.23
2024-02-08T03:49:21.623Z,9.30
2024-02-08T03:51:49.293Z,9.15
2024-02-08T03:54:17.264Z,11.27
2024-02-08T03:56:45.447Z,8.13
2024-02-08T03:59:12.290Z,9.82
2024-02-08T04:01:41.882Z,9.60
2024-02-08T04:04:08.808Z,10.57
2024-02-08T04:06:35.721Z,8.50
2024-02-08T04:09:02.543Z,9.50
2024-02-08T04:11:29.301Z,8.45
2024-02-08T04:13:56.084Z,7.65
2024-02-08T04:16:22.976Z,9.13
2024-02-08T04:18:49.859Z,9.13
2024-02-08T04:21:16.758Z,9.57
2024-02-08T04:23:43.641Z,8.68
2024-02-08T04:26:10.481Z,7.60
2024-02-08T04:28:37.347Z,14.18
2024-02-08T04:31:10.082Z,9.00
2024-02-08T04:33:37.049Z,8.02
2024-02-08T04:36:04.244Z,8.52
2024-02-08T04:38:31.075Z,9.10
2024-02-08T04:40:58.002Z,8.27
2024-02-08T04:43:24.947Z,8.43
2024-02-08T04:45:51.798Z,7.35
2024-02-08T04:48:18.638Z,7.78
2024-02-08T04:50:45.551Z,8.27
2024-02-08T04:53:12.425Z,8.82
2024-02-08T04:55:39.268Z,8.10
2024-02-08T04:58:28.275Z,7.93
2024-02-08T05:00:52.814Z,8.27
2024-02-08T05:03:19.581Z,7.63
2024-02-08T05:05:46.410Z,7.85
2024-02-08T05:08:13.359Z,7.40
2024-02-08T05:10:40.195Z,8.07
2024-02-08T05:13:07.140Z,6.55
2024-02-08T05:15:33.997Z,7.60
2024-02-08T05:18:00.837Z,6.93
2024-02-08T05:20:27.982Z,7.18
2024-02-08T05:22:54.749Z,6.97
2024-02-08T05:25:23.623Z,7.85
2024-02-08T05:27:52.350Z,7.57
2024-02-08T05:30:19.257Z,7.35
2024-02-08T05:32:46.606Z,7.00
2024-02-08T05:35:13.526Z,6.88
2024-02-08T05:37:40.924Z,8.35
2024-02-08T05:40:08.316Z,7.65
2024-02-08T05:42:35.250Z,7.55
2024-02-08T05:45:02.019Z,8.50
2024-02-08T05:47:28.862Z,8.70
2024-02-08T05:49:55.781Z,8.38
2024-02-08T05:52:22.659Z,8.38
2024-02-08T05:54:49.485Z,7.63
2024-02-08T05:57:19.376Z,10.43
2024-02-08T05:59:46.941Z,8.00
2024-02-08T06:02:14.493Z,9.05
2024-02-08T06:04:42.149Z,9.30
2024-02-08T06:07:09.109Z,10.88
2024-02-08T06:09:37.874Z,10.38
2024-02-08T06:12:08.380Z,9.73
2024-02-08T06:14:37.382Z,10.55
2024-02-08T06:17:04.229Z,10.80
2024-02-08T06:19:31.078Z,12.13
2024-02-08T06:21:57.913Z,11.75
2024-02-08T06:24:24.786Z,12.02
2024-02-08T06:26:55.503Z,11.82
2024-02-08T06:29:22.897Z,12.05
2024-02-08T06:31:49.763Z,14.85
2024-02-08T06:34:16.625Z,11.15
2024-02-08T06:36:43.586Z,10.95
2024-02-08T06:39:10.491Z,12.80
2024-02-08T06:41:37.328Z,11.50
2024-02-08T06:44:04.177Z,10.15
2024-02-08T06:46:30.986Z,11.98
2024-02-08T06:48:57.836Z,10.82
2024-02-08T06:51:24.651Z,10.70
2024-02-08T06:53:52.584Z,11.05
2024-02-08T06:56:19.370Z,11.55
2024-02-08T06:58:46.121Z,10.75
2024-02-08T07:01:13.074Z,11.63
2024-02-08T07:03:40.648Z,11.52
2024-02-08T07:06:07.512Z,13.07
2024-02-08T07:08:34.261Z,12.55
2024-02-08T07:11:01.078Z,11.77
2024-02-08T07:13:27.900Z,11.75
2024-02-08T07:15:54.733Z,13.38
2024-02-08T07:18:21.656Z,12.25
2024-02-08T07:20:48.466Z,12.70
2024-02-08T07:23:15.246Z,13.70
2024-02-08T07:25:42.109Z,12.93
2024-02-08T07:28:09.006Z,13.15
2024-02-08T07:30:35.887Z,13.45
2024-02-08T07:33:02.779Z,13.05
2024-02-08T07:35:29.631Z,12.75
2024-02-08T07:37:56.439Z,12.52
2024-02-08T07:40:23.380Z,11.77
2024-02-08T07:42:56.576Z,12.00
2024-02-08T07:45:23.355Z,10.80
2024-02-08T07:47:50.196Z,12.32
2024-02-08T07:50:17.158Z,13.30
2024-02-08T07:52:43.980Z,11.52
2024-02-08T07:55:10.881Z,11.25
2024-02-08T07:57:37.863Z,12.57
2024-02-08T08:00:05.184Z,11.20
2024-02-08T08:02:31.992Z,11.23
2024-02-08T08:04:58.959Z,11.20
2024-02-08T08:07:26.157Z,11.75
2024-02-08T08:09:54.314Z,11.88
2024-02-08T08:12:23.627Z,12.32
2024-02-08T08:14:51.745Z,12.65
2024-02-08T08:17:18.888Z,12.90
2024-02-08T08:19:46.564Z,12.38
2024-02-08T08:22:14.447Z,14.50
2024-02-08T08:24:41.252Z,12.95
2024-02-08T08:27:08.560Z,12.80
2024-02-08T08:29:38.889Z,13.48
2024-02-08T08:32:05.859Z,11.88
2024-02-08T08:34:32.817Z,11.05
2024-02-08T08:36:59.908Z,11.38
2024-02-08T08:39:27.458Z,10.68
2024-02-08T08:41:54.233Z,9.82
2024-02-08T08:44:21.025Z,11.10
2024-02-08T08:46:47.804Z,10.07
2024-02-08T08:49:16.458Z,9.98
2024-02-08T08:51:44.136Z,9.65
2024-02-08T08:54:11.697Z,10.70
2024-02-08T08:56:38.487Z,9.82
2024-02-08T08:59:05.297Z,10.02
2024-02-08T09:01:32.163Z,9.43
2024-02-08T09:03:59.342Z,9.10
2024-02-08T09:06:26.999Z,10.02
2024-02-08T09:08:54.121Z,9.85
2024-02-08T09:11:20.879Z,9.48
2024-02-08T09:13:49.355Z,11.13
2024-02-08T09:16:18.131Z,11.15
2024-02-08T09:18:45.293Z,10.43
2024-02-08T09:21:12.191Z,10.00
2024-02-08T09:23:39.048Z,10.38
2024-02-08T09:26:05.880Z,9.38
2024-02-08T09:28:33.639Z,9.48
2024-02-08T09:31:01.992Z,8.85
2024-02-08T09:33:28.807Z,9.70
2024-02-08T09:35:55.602Z,9.15
2024-02-08T09:38:22.404Z,10.73
2024-02-08T09:40:49.378Z,9.95
2024-02-08T09:43:16.577Z,9.27
2024-02-08T09:45:45.604Z,9.50
2024-02-08T09:48:17.987Z,11.23
2024-02-08T09:50:45.808Z,10.75
2024-02-08T09:53:12.705Z,12.13
2024-02-08T09:55:39.518Z,10.85
2024-02-08T09:58:07.106Z,14.23
2024-02-08T10:00:35.007Z,15.65
2024-02-08T10:03:07.802Z,15.98
2024-02-08T10:05:35.057Z,15.55
2024-02-08T10:08:01.863Z,15.63
2024-02-08T10:10:28.838Z,17.25
2024-02-08T10:12:56.801Z,17.10
2024-02-08T10:15:23.636Z,16.90
2024-02-08T10:17:50.450Z,20.60
2024-02-08T10:20:23.293Z,18.13
2024-02-08T10:22:51.340Z,20.77
2024-02-08T10:25:18.139Z,18.83
2024-02-08T10:27:45.025Z,18.45
2024-02-08T10:30:12.461Z,16.10
2024-02-08T10:32:39.354Z,17.48
2024-02-08T10:35:07.351Z,17.13
2024-02-08T10:37:34.259Z,16.77
2024-02-08T10:40:07.231Z,16.75
2024-02-08T10:42:34.072Z,15.57
2024-02-08T10:45:05.216Z,16.23
2024-02-08T10:47:40.583Z,17.33
2024-02-08T10:50:11.294Z,16.50
2024-02-08T10:52:38.816Z,16.85
2024-02-08T10:55:06.380Z,17.77
2024-02-08T10:57:33.360Z,16.08
2024-02-08T11:00:00.884Z,17.63
2024-02-08T11:02:30.036Z,18.23
2024-02-08T11:04:58.662Z,17.65
2024-02-08T11:07:25.737Z,15.10
2024-02-08T11:09:52.627Z,16.00
2024-02-08T11:12:28.240Z,15.20
2024-02-08T11:14:59.485Z,12.60
2024-02-08T11:17:29.826Z,11.15
2024-02-08T11:19:57.126Z,10.80
2024-02-08T11:22:29.119Z,11.80
2024-02-08T11:24:56.057Z,13.35
2024-02-08T11:27:25.980Z,15.60
2024-02-08T11:29:52.789Z,14.30
2024-02-08T11:32:19.606Z,14.85
2024-02-08T11:34:47.673Z,13.02
2024-02-08T11:37:18.271Z,13.13
2024-02-08T11:39:45.737Z,13.93
2024-02-08T11:42:15.211Z,15.13
2024-02-08T11:44:43.093Z,14.23
2024-02-08T11:47:19.954Z,15.52
2024-02-08T11:49:54.666Z,14.85
2024-02-08T11:52:22.018Z,15.68
2024-02-08T11:55:10.726Z,14.85
2024-02-08T11:57:39.027Z,14.70
2024-02-08T12:00:10.636Z,15.82
2024-02-08T12:02:39.451Z,15.68
2024-02-08T12:05:06.586Z,16.00
2024-02-08T12:07:33.575Z,15.75
2024-02-08T12:10:00.525Z,15.88
2024-02-08T12:12:27.386Z,15.60
2024-02-08T12:14:54.708Z,15.07
2024-02-08T12:17:24.512Z,13.90
2024-02-08T12:19:58.621Z,13.88
2024-02-08T12:24:58.829Z,13.32
2024-02-08T12:27:27.143Z,14.52
2024-02-08T12:29:54.420Z,12.90
2024-02-08T12:32:21.427Z,13.23
2024-02-08T12:34:49.572Z,11.43
2024-02-08T12:37:18.567Z,7.85
2024-02-08T12:39:46.826Z,11.73
2024-02-08T12:42:16.476Z,12.02
2024-02-08T12:44:44.533Z,11.50
2024-02-08T12:47:11.361Z,13.52
2024-02-08T12:49:38.326Z,12.15
2024-02-08T12:52:07.613Z,13.10
2024-02-08T12:54:34.431Z,14.32
2024-02-08T12:57:05.786Z,15.00
2024-02-08T12:59:32.617Z,11.02
2024-02-08T13:02:00.146Z,11.27
2024-02-08T13:04:27.095Z,8.82
2024-02-08T13:06:54.112Z,10.52
2024-02-08T13:09:23.790Z,12.40
2024-02-08T13:11:50.568Z,9.10
2024-02-08T13:14:20.461Z,8.65
2024-02-08T13:16:47.304Z,10.63
2024-02-08T13:19:18.819Z,11.38
2024-02-08T13:21:45.669Z,11.32
2024-02-08T13:24:12.525Z,11.10
2024-02-08T13:26:39.264Z,4.90
2024-02-08T13:29:06.018Z,10.70
2024-02-08T13:31:32.949Z,11.52
2024-02-08T13:33:59.873Z,12.70
2024-02-08T13:36:26.884Z,11.23
2024-02-08T13:38:53.746Z,5.22
2024-02-08T13:41:20.546Z,5.18
2024-02-08T13:43:47.648Z,8.55
2024-02-08T13:46:15.350Z,6.13
2024-02-08T13:48:43.028Z,8.80
2024-02-08T13:51:09.809Z,9.45
2024-02-08T13:53:36.655Z,9.38
2024-02-08T13:56:03.790Z,9.60
2024-02-08T13:58:30.715Z,7.60
2024-02-08T14:00:57.628Z,5.78
2024-02-08T14:03:25.732Z,7.57
2024-02-08T14:05:53.873Z,7.10
2024-02-08T14:08:21.274Z,8.70
2024-02-08T14:10:48.073Z,8.15
2024-02-08T14:13:16.038Z,7.80
2024-02-08T14:15:43.929Z,7.30
2024-02-08T14:18:10.772Z,7.85
2024-02-08T14:20:37.991Z,8.30
2024-02-08T14:23:04.861Z,7.82
2024-02-08T14:25:31.735Z,8.38
2024-02-08T14:27:58.576Z,8.88
2024-02-08T14:30:25.396Z,9.10
2024-02-08T14:32:52.202Z,9.40
2024-02-08T14:35:19.088Z,8.80
2024-02-08T14:37:45.977Z,9.73
2024-02-08T14:40:13.327Z,9.88
2024-02-08T14:42:40.132Z,9.73
2024-02-08T14:45:07.263Z,9.45
2024-02-08T14:47:34.062Z,9.10
2024-02-08T14:50:02.199Z,9.20
2024-02-08T14:52:31.079Z,10.23
2024-02-08T14:54:58.625Z,9.40
2024-02-08T14:57:28.636Z,10.85
2024-02-08T14:59:55.387Z,10.48
2024-02-08T15:02:22.302Z,10.02
2024-02-08T15:04:50.067Z,11.10
2024-02-08T15:07:18.407Z,10.82
2024-02-08T15:09:46.884Z,9.45
2024-02-08T15:12:13.672Z,10.85
2024-02-08T15:14:40.508Z,11.05
2024-02-08T15:17:08.168Z,12.13
2024-02-08T15:19:39.436Z,12.93
2024-02-08T15:22:06.377Z,12.45
2024-02-08T15:24:33.211Z,13.18
2024-02-08T15:27:00.181Z,13.43
2024-02-08T15:29:26.952Z,12.32
2024-02-08T15:31:55.608Z,14.32
2024-02-08T15:34:22.714Z,13.30
2024-02-08T15:36:50.377Z,13.13
2024-02-08T15:39:21.757Z,12.80
2024-02-08T15:41:49.065Z,13.43
2024-02-08T15:44:15.806Z,13.65
2024-02-08T15:46:42.637Z,13.55
2024-02-08T15:49:09.652Z,13.13
2024-02-08T15:51:36.473Z,13.02
2024-02-08T15:54:03.275Z,13.20
2024-02-08T15:56:31.386Z,14.02
2024-02-08T15:58:58.195Z,12.68
2024-02-08T16:01:25.057Z,13.95
2024-02-08T16:03:51.982Z,15.02
2024-02-08T16:06:18.777Z,14.48
2024-02-08T16:08:45.659Z,13.27
2024-02-08T16:11:12.450Z,13.57
2024-02-08T16:13:39.427Z,15.07
2024-02-08T16:16:06.377Z,15.02
2024-02-08T16:18:33.184Z,13.13
2024-02-08T16:20:59.957Z,15.73
2024-02-08T16:23:26.693Z,13.52
2024-02-08T16:25:56.891Z,14.40
2024-02-08T16:28:23.769Z,14.68
2024-02-08T16:30:52.211Z,15.05
2024-02-08T16:33:19.110Z,18.08
2024-02-08T16:35:47.011Z,14.65
2024-02-08T16:38:13.759Z,13.65
2024-02-08T16:40:40.600Z,14.50
2024-02-08T16:43:07.417Z,15.93
2024-02-08T16:45:43.653Z,14.93
2024-02-08T16:48:10.469Z,14.45
2024-02-08T16:50:37.281Z,15.77
2024-02-08T16:53:04.081Z,16.02
2024-02-08T16:55:30.958Z,16.30
2024-02-08T16:57:57.801Z,19.45
2024-02-08T17:00:24.606Z,18.08
2024-02-08T17:02:51.430Z,20.50
2024-02-08T17:05:18.641Z,22.17
2024-02-08T17:07:45.959Z,21.05
2024-02-08T17:10:14.456Z,21.02
2024-02-08T17:12:41.272Z,23.02
2024-02-08T17:15:08.176Z,25.25
2024-02-08T17:17:34.992Z,22.92
2024-02-08T17:20:03.209Z,24.67
2024-02-08T17:22:30.508Z,25.95
2024-02-08T17:24:57.921Z,24.10
2024-02-08T17:27:24.696Z,25.35
2024-02-08T17:29:51.535Z,23.77
2024-02-08T17:32:18.848Z,25.88
2024-02-08T17:34:45.705Z,24.70
2024-02-08T17:37:12.681Z,23.00
2024-02-08T17:39:39.487Z,22.65
2024-02-08T17:42:06.844Z,26.65
2024-02-08T17:44:33.568Z,23.67
2024-02-08T17:47:00.390Z,24.67
2024-02-08T17:49:27.270Z,23.33
2024-02-08T17:51:54.052Z,22.85
2024-02-08T17:54:20.826Z,23.08
2024-02-08T17:56:49.362Z,24.77
2024-02-08T17:59:16.122Z,22.67
2024-02-08T18:01:43.615Z,24.02
2024-02-08T18:04:10.509Z,23.00
2024-02-08T18:06:37.444Z,22.48
2024-02-08T18:09:04.242Z,24.17
2024-02-08T18:11:31.392Z,23.05
2024-02-08T18:13:58.299Z,22.60
2024-02-08T18:16:25.132Z,21.70
2024-02-08T18:18:52.028Z,21.83
2024-02-08T18:21:19.241Z,19.45
2024-02-08T18:23:46.265Z,20.55
2024-02-08T18:26:14.119Z,23.15
2024-02-08T18:28:41.047Z,21.77
2024-02-08T18:31:10.767Z,21.88
2024-02-08T18:33:38.994Z,22.92
2024-02-08T18:36:06.128Z,21.95
2024-02-08T18:38:32.971Z,23.83
2024-02-08T18:40:59.788Z,23.00
2024-02-08T18:43:26.561Z,22.88
2024-02-08T18:45:53.916Z,23.75
2024-02-08T18:48:20.768Z,23.40
2024-02-08T18:50:47.899Z,22.75
2024-02-08T18:53:14.672Z,23.30
2024-02-08T18:55:41.737Z,23.92
2024-02-08T18:58:12.240Z,22.25
2024-02-08T19:00:39.049Z,21.80
2024-02-08T19:03:06.026Z,22.00
2024-02-08T19:05:32.966Z,22.98
2024-02-08T19:07:59.782Z,20.08
2024-02-08T19:10:30.079Z,20.52
2024-02-08T19:12:57.502Z,21.38
2024-02-08T19:15:24.305Z,21.33
2024-02-08T19:17:57.138Z,22.35
2024-02-08T19:20:30.220Z,23.38
2024-02-08T19:22:57.046Z,22.40
2024-02-08T19:25:25.457Z,21.73
2024-02-08T19:27:52.311Z,20.80
2024-02-08T19:30:19.103Z,24.73
2024-02-08T19:32:45.933Z,20.35
2024-02-08T19:35:12.959Z,21.95
2024-02-08T19:37:40.000Z,22.67
2024-02-08T19:40:07.776Z,24.60
2024-02-08T19:42:34.528Z,31.55
2024-02-08T19:45:01.541Z,23.00
2024-02-08T19:47:29.828Z,22.63
2024-02-08T19:49:57.293Z,22.63
2024-02-08T19:52:24.113Z,23.55
2024-02-08T19:54:51.774Z,22.88
2024-02-08T19:57:18.851Z,23.98
2024-02-08T19:59:46.013Z,25.55
2024-02-08T20:02:13.281Z,27.05
2024-02-08T20:04:40.279Z,28.63
2024-02-08T20:07:07.235Z,28.15
2024-02-08T20:09:34.038Z,25.67
2024-02-08T20:12:00.823Z,25.98
2024-02-08T20:14:27.513Z,25.80
2024-02-08T20:16:54.310Z,27.77
2024-02-08T20:19:22.317Z,26.23
2024-02-08T20:21:50.014Z,25.35
2024-02-08T20:24:17.380Z,27.38
2024-02-08T20:26:44.193Z,27.77
2024-02-08T20:29:10.889Z,27.27
2024-02-08T20:31:37.648Z,27.90
2024-02-08T20:34:04.740Z,26.10
2024-02-08T20:36:31.643Z,27.30
2024-02-08T20:38:58.332Z,26.75
2024-02-08T20:41:25.441Z,24.20
2024-02-08T20:43:55.556Z,23.65
2024-02-08T20:46:23.448Z,24.75
2024-02-08T20:48:50.536Z,24.73
2024-02-08T20:51:17.417Z,25.27
2024-02-08T20:53:44.196Z,26.52
2024-02-08T20:56:10.949Z,23.42
2024-02-08T20:58:38.036Z,21.75
2024-02-08T21:01:04.902Z,23.65
2024-02-08T21:03:31.640Z,23.27
2024-02-08T21:05:58.339Z,22.77
2024-02-08T21:08:25.085Z,25.05
2024-02-08T21:10:51.849Z,24.48
2024-02-08T21:13:18.968Z,25.67
2024-02-08T21:15:46.671Z,28.35
2024-02-08T21:18:14.695Z,28.02
2024-02-08T21:20:44.364Z,27.27
2024-02-08T21:23:11.155Z,27.45
2024-02-08T21:25:38.318Z,26.70
2024-02-08T21:28:05.650Z,29.13
2024-02-08T21:30:32.629Z,27.30
2024-02-08T21:32:59.425Z,29.23
2024-02-08T21:35:26.374Z,28.13
2024-02-08T21:37:53.189Z,27.98
2024-02-08T21:40:20.092Z,26.60
2024-02-08T21:42:46.873Z,27.60
2024-02-08T21:45:13.971Z,28.77
2024-02-08T21:47:41.016Z,29.00
2024-02-08T21:50:08.595Z,28.50
2024-02-08T21:52:38.846Z,30.00
2024-02-08T21:55:06.026Z,28.80
2024-02-08T21:57:32.853Z,29.02
2024-02-08T21:59:59.610Z,30.08
2024-02-08T22:02:26.404Z,29.95
2024-02-08T22:04:53.322Z,28.23
2024-02-08T22:07:20.270Z,29.58
2024-02-08T22:09:47.092Z,30.55
2024-02-08T22:12:13.823Z,29.85
2024-02-08T22:14:40.544Z,32.55
2024-02-08T22:17:07.313Z,31.77
2024-02-08T22:19:34.137Z,30.38
2024-02-08T22:22:00.971Z,31.73
2024-02-08T22:24:27.729Z,33.83
2024-02-08T22:26:54.491Z,33.20
2024-02-08T22:29:24.403Z,31.45
2024-02-08T22:31:52.364Z,32.50
2024-02-08T22:34:19.738Z,36.97
2024-02-08T22:36:46.851Z,33.78
2024-02-08T22:39:13.623Z,32.20
2024-02-08T22:41:44.988Z,30.17
2024-02-08T22:44:15.331Z,30.63
2024-02-08T22:46:42.621Z,29.65
2024-02-08T22:49:09.433Z,29.42
2024-02-08T22:51:36.212Z,30.90
2024-02-08T22:54:03.545Z,28.52
2024-02-08T22:56:30.308Z,29.02
2024-02-08T22:58:57.055Z,30.23
2024-02-08T23:01:24.049Z,25.70
2024-02-08T23:03:50.908Z,30.48
2024-02-08T23:06:20.690Z,29.08
2024-02-08T23:08:47.443Z,25.65
2024-02-08T23:11:14.156Z,31.08
2024-02-08T23:13:40.883Z,32.72
2024-02-08T23:16:07.684Z,32.88
2024-02-08T23:18:35.516Z,34.08
2024-02-08T23:21:02.342Z,37.63
2024-02-08T23:23:29.310Z,33.20
2024-02-08T23:25:56.170Z,34.72
2024-02-08T23:28:22.906Z,36.22
2024-02-08T23:30:49.690Z,30.50
2024-02-08T23:33:16.582Z,32.38
2024-02-08T23:35:43.409Z,33.38
2024-02-08T23:38:10.121Z,28.98
2024-02-08T23:40:36.915Z,28.25
2024-02-08T23:43:03.711Z,32.03
2024-02-08T23:45:31.523Z,32.15
2024-02-08T23:47:58.650Z,36.83
2024-02-08T23:50:26.689Z,35.40
2024-02-08T23:52:55.058Z,33.53
2024-02-08T23:55:21.831Z,33.13
2024-02-08T23:57:48.623Z,38.40
